Time;durP1;ratioP1;P1;durP2;ratioP2;P2;SDS_P1;SDS_P2;PMS_P1;PMS_P2;Temp;Humidity;BMP_temperature;BMP_pressure;BME280_temperature;BME280_humidity;BME280_pressure;Samples;Min_cycle;Max_cycle;Signal;HPM_P1;HPM_P2
2021/08/08 00:00:21;;;;;;;2.33;2.03;;;14.60;99.90;;;;;;5118490;28;20176;-44
2021/08/08 00:02:46;;;;;;;2.50;1.73;;;14.50;99.90;;;;;;5118530;28;20284;-43
2021/08/08 00:05:12;;;;;;;3.23;1.77;;;14.50;99.90;;;;;;5118719;28;20511;-44
2021/08/08 00:07:38;;;;;;;2.77;1.90;;;14.50;99.90;;;;;;5118794;28;20280;-44
2021/08/08 00:10:06;;;;;;;2.67;1.60;;;14.40;99.90;;;;;;5100611;28;20528;-44
2021/08/08 00:12:32;;;;;;;6.43;1.90;;;14.40;99.90;;;;;;5119418;28;20812;-44
2021/08/08 00:14:57;;;;;;;5.20;1.90;;;14.40;99.90;;;;;;5101146;28;20504;-44
2021/08/08 00:17:23;;;;;;;5.07;1.70;;;14.40;99.90;;;;;;5119362;28;20183;-44
2021/08/08 00:19:49;;;;;;;3.70;2.00;;;14.30;99.90;;;;;;5119337;28;20214;-44
2021/08/08 00:22:15;;;;;;;4.23;2.10;;;14.40;99.90;;;;;;5118940;28;20207;-44
2021/08/08 00:24:41;;;;;;;2.00;1.80;;;14.40;99.90;;;;;;5100308;28;20466;-44
2021/08/08 00:27:06;;;;;;;4.27;1.80;;;14.30;99.90;;;;;;5117705;28;20718;-44
2021/08/08 00:29:32;;;;;;;7.70;2.70;;;14.30;99.90;;;;;;5099233;28;20177;-44
2021/08/08 00:31:58;;;;;;;2.17;1.90;;;14.30;99.90;;;;;;5097410;28;20172;-44
2021/08/08 00:34:24;;;;;;;4.20;2.10;;;14.20;99.90;;;;;;5097383;28;20429;-44
2021/08/08 00:36:49;;;;;;;2.20;2.00;;;14.10;99.90;;;;;;5097455;28;20183;-44
2021/08/08 00:39:17;;;;;;;4.03;2.20;;;14.10;99.90;;;;;;5079697;28;20244;-44
2021/08/08 00:41:43;;;;;;;4.60;2.00;;;14.00;99.90;;;;;;5097895;28;20208;-44
2021/08/08 00:44:08;;;;;;;3.97;2.00;;;14.00;99.90;;;;;;5098368;28;20998;-44
2021/08/08 00:46:34;;;;;;;3.50;2.00;;;14.00;99.90;;;;;;5098147;28;20221;-44
2021/08/08 00:49:00;;;;;;;4.03;2.43;;;13.90;99.90;;;;;;5098199;28;20208;-44
2021/08/08 00:51:27;;;;;;;12.30;2.10;;;13.90;99.90;;;;;;5098164;28;20287;-44
2021/08/08 00:53:54;;;;;;;5.30;1.90;;;13.90;99.90;;;;;;5098448;28;20453;-44
2021/08/08 00:56:19;;;;;;;1.90;1.70;;;13.90;99.90;;;;;;5098390;28;20502;-44
2021/08/08 00:58:45;;;;;;;6.60;2.10;;;13.90;99.90;;;;;;5098135;28;20887;-44
2021/08/08 01:01:15;;;;;;;2.70;1.90;;;13.90;99.90;;;;;;5080036;28;20471;-44
2021/08/08 01:03:42;;;;;;;3.97;2.30;;;13.80;99.90;;;;;;5097978;28;20811;-44
2021/08/08 01:06:47;;;;;;;4.23;1.97;;;13.80;99.90;;;;;;5079901;28;20415;-44
2021/08/08 01:09:13;;;;;;;3.87;2.17;;;13.80;99.90;;;;;;5094420;28;20849;-44
2021/08/08 01:11:39;;;;;;;4.67;2.43;;;13.70;99.90;;;;;;5079998;28;20442;-44
2021/08/08 01:14:07;;;;;;;5.40;2.80;;;13.70;99.90;;;;;;5097236;28;20770;-44
2021/08/08 01:16:34;;;;;;;3.07;2.20;;;13.70;99.90;;;;;;5097833;28;20419;-44
2021/08/08 01:19:00;;;;;;;4.43;2.23;;;13.70;99.90;;;;;;5079775;28;20532;-44
2021/08/08 01:21:27;;;;;;;2.60;1.80;;;13.70;99.90;;;;;;5079632;28;20468;-44
2021/08/08 01:23:56;;;;;;;3.50;1.33;;;13.80;99.90;;;;;;5076510;28;20479;-44
2021/08/08 01:26:23;;;;;;;2.23;2.00;;;13.70;99.90;;;;;;5076721;28;20416;-44
2021/08/08 01:28:49;;;;;;;4.33;2.00;;;13.70;99.90;;;;;;5077053;28;20435;-44
2021/08/08 01:31:14;;;;;;;3.00;2.70;;;13.70;99.90;;;;;;5078067;28;20422;-44
2021/08/08 01:33:40;;;;;;;3.77;3.00;;;13.70;99.90;;;;;;5077569;28;20543;-44
2021/08/08 01:36:06;;;;;;;2.60;2.40;;;13.70;99.90;;;;;;5077453;28;20415;-44
2021/08/08 01:38:33;;;;;;;3.67;2.50;;;13.70;99.90;;;;;;5077242;28;20864;-44
2021/08/08 01:41:02;;;;;;;4.93;3.47;;;13.80;99.90;;;;;;5075743;28;20184;-44
2021/08/08 01:43:32;;;;;;;4.63;4.10;;;13.80;99.90;;;;;;5076840;28;20674;-44
2021/08/08 01:46:05;;;;;;;3.70;3.40;;;13.80;99.90;;;;;;5077229;28;20407;-44
2021/08/08 01:48:32;;;;;;;6.37;3.00;;;13.90;99.90;;;;;;5077490;28;20434;-44
2021/08/08 01:50:59;;;;;;;3.43;2.43;;;13.80;99.90;;;;;;5076594;28;20663;-44
2021/08/08 01:53:26;;;;;;;5.47;3.50;;;13.80;99.90;;;;;;5076932;28;20837;-44
2021/08/08 01:55:52;;;;;;;3.70;3.00;;;13.80;99.90;;;;;;5077672;28;20408;-44
2021/08/08 01:58:18;;;;;;;2.80;2.37;;;13.80;99.90;;;;;;5077397;28;20465;-44
2021/08/08 02:00:44;;;;;;;4.43;2.00;;;13.70;99.90;;;;;;5077752;28;20477;-44
2021/08/08 02:03:09;;;;;;;2.80;2.03;;;13.70;99.90;;;;;;5077437;28;20271;-44
2021/08/08 02:05:38;;;;;;;3.90;1.90;;;13.70;99.90;;;;;;5077255;28;20495;-44
2021/08/08 02:08:04;;;;;;;4.00;1.77;;;13.60;99.90;;;;;;5077627;28;20181;-44
2021/08/08 02:10:29;;;;;;;2.20;2.00;;;13.60;99.90;;;;;;5077728;28;20480;-44
2021/08/08 02:12:55;;;;;;;4.63;2.10;;;13.60;99.90;;;;;;5076745;28;20430;-44
2021/08/08 02:15:21;;;;;;;2.33;1.80;;;13.60;99.90;;;;;;5077600;28;20422;-44
2021/08/08 02:17:46;;;;;;;5.93;2.00;;;13.60;99.90;;;;;;5077257;28;20203;-44
2021/08/08 02:20:15;;;;;;;3.83;1.83;;;13.60;99.90;;;;;;5076391;28;20249;-44
2021/08/08 02:22:42;;;;;;;2.93;1.70;;;13.60;99.90;;;;;;5076057;28;20209;-44
2021/08/08 02:25:08;;;;;;;2.80;1.70;;;13.60;99.90;;;;;;5093385;28;20497;-44
2021/08/08 02:27:34;;;;;;;2.47;1.73;;;13.50;99.90;;;;;;5097393;28;20476;-44
2021/08/08 02:30:00;;;;;;;2.33;1.53;;;13.50;99.90;;;;;;5097835;28;20410;-44
2021/08/08 02:32:26;;;;;;;2.00;1.40;;;13.50;99.90;;;;;;5097086;28;20467;-44
2021/08/08 02:34:51;;;;;;;2.17;1.43;;;13.50;99.90;;;;;;5097266;28;20414;-44
2021/08/08 02:37:17;;;;;;;4.23;2.37;;;13.60;99.90;;;;;;5097298;28;20626;-44
2021/08/08 02:39:43;;;;;;;3.00;1.80;;;13.60;99.90;;;;;;5097164;28;20520;-44
2021/08/08 02:42:09;;;;;;;2.20;2.00;;;13.60;99.90;;;;;;5097522;28;20212;-44
2021/08/08 02:44:34;;;;;;;3.97;1.90;;;13.70;99.90;;;;;;5097460;28;20480;-44
2021/08/08 02:47:00;;;;;;;2.90;2.10;;;13.70;99.90;;;;;;5097153;28;20160;-44
2021/08/08 02:49:26;;;;;;;2.90;2.07;;;13.60;99.90;;;;;;5097182;28;20176;-44
2021/08/08 02:51:54;;;;;;;3.87;2.50;;;13.60;99.90;;;;;;5096367;28;20632;-44
2021/08/08 02:54:20;;;;;;;2.90;1.87;;;13.60;99.90;;;;;;5096025;28;20414;-44
2021/08/08 02:56:47;;;;;;;5.27;2.40;;;13.60;99.90;;;;;;5096128;28;20421;-44
2021/08/08 02:59:13;;;;;;;5.10;2.70;;;13.60;99.90;;;;;;5096058;28;20180;-44
2021/08/08 03:01:39;;;;;;;2.53;2.30;;;13.60;99.90;;;;;;5095975;28;20802;-44
2021/08/08 03:04:04;;;;;;;7.80;2.20;;;13.50;99.90;;;;;;5097553;28;20422;-44
2021/08/08 03:06:30;;;;;;;5.73;2.30;;;13.60;99.90;;;;;;5100437;28;20240;-44
2021/08/08 03:08:56;;;;;;;2.97;2.27;;;13.60;99.90;;;;;;5100808;28;20562;-44
2021/08/08 03:11:21;;;;;;;4.20;2.37;;;13.60;99.90;;;;;;5082859;28;20581;-44
2021/08/08 03:13:47;;;;;;;3.17;1.90;;;13.70;99.90;;;;;;5101110;28;20840;-44
2021/08/08 03:16:13;;;;;;;4.60;2.00;;;13.60;99.90;;;;;;5100383;28;20237;-44
2021/08/08 03:18:39;;;;;;;3.20;2.30;;;13.60;99.90;;;;;;5100757;28;20249;-44
2021/08/08 03:21:06;;;;;;;4.70;2.57;;;13.60;99.90;;;;;;5100499;28;20247;-44
2021/08/08 03:23:32;;;;;;;3.40;2.00;;;13.60;99.90;;;;;;5100598;28;20437;-44
2021/08/08 03:25:58;;;;;;;2.77;2.00;;;13.60;99.90;;;;;;5100482;28;20483;-44
2021/08/08 03:28:24;;;;;;;3.80;2.10;;;13.60;99.90;;;;;;5101026;28;20434;-44
2021/08/08 03:30:49;;;;;;;2.83;1.70;;;13.50;99.90;;;;;;5100411;28;20181;-44
2021/08/08 03:33:15;;;;;;;3.13;2.10;;;13.50;99.90;;;;;;5100604;28;20449;-44
2021/08/08 03:35:41;;;;;;;2.20;1.50;;;13.50;99.90;;;;;;5100052;28;20528;-44
2021/08/08 03:38:10;;;;;;;3.50;1.60;;;13.40;99.90;;;;;;5100266;28;20185;-44
2021/08/08 03:40:35;;;;;;;4.60;2.20;;;13.40;99.90;;;;;;5100135;28;20657;-44
2021/08/08 03:43:02;;;;;;;3.03;1.80;;;13.40;99.90;;;;;;5100124;28;20576;-44
2021/08/08 03:45:28;;;;;;;6.00;2.00;;;13.40;99.90;;;;;;5099976;28;20182;-44
2021/08/08 03:47:54;;;;;;;3.63;2.23;;;13.30;99.90;;;;;;5099878;28;20962;-44
2021/08/08 03:50:20;;;;;;;5.80;2.00;;;13.30;99.90;;;;;;5100649;28;20188;-45
2021/08/08 03:52:46;;;;;;;1.73;1.30;;;13.30;99.90;;;;;;5099773;28;20430;-44
2021/08/08 03:55:13;;;;;;;3.93;1.70;;;13.40;99.90;;;;;;5102034;28;20511;-44
2021/08/08 03:57:39;;;;;;;2.73;1.87;;;13.40;99.90;;;;;;5105859;28;20900;-44
2021/08/08 04:00:06;;;;;;;2.53;1.80;;;13.30;99.90;;;;;;5108843;28;20444;-44
2021/08/08 04:02:32;;;;;;;6.60;1.90;;;13.30;99.90;;;;;;5102314;28;20473;-45
2021/08/08 04:04:57;;;;;;;2.80;1.47;;;13.30;99.90;;;;;;5106242;28;20440;-55
2021/08/08 04:07:23;;;;;;;3.70;1.90;;;13.20;99.90;;;;;;5110508;28;20445;-45
2021/08/08 04:09:49;;;;;;;5.23;2.00;;;13.20;99.90;;;;;;5111380;28;20455;-45
2021/08/08 04:12:14;;;;;;;3.03;2.10;;;13.20;99.90;;;;;;5105722;28;20487;-45
2021/08/08 04:14:42;;;;;;;4.00;1.80;;;13.20;99.90;;;;;;5090410;28;20255;-45
2021/08/08 04:17:08;;;;;;;2.70;1.93;;;13.30;99.90;;;;;;5106642;28;20192;-45
2021/08/08 04:19:34;;;;;;;5.37;2.10;;;13.20;99.90;;;;;;5092471;28;20501;-45
2021/08/08 04:22:01;;;;;;;6.07;1.70;;;13.20;99.90;;;;;;5106001;28;20506;-45
2021/08/08 04:24:27;;;;;;;5.03;2.23;;;13.20;99.90;;;;;;5108288;28;20318;-45
2021/08/08 04:26:53;;;;;;;3.77;1.80;;;13.20;99.90;;;;;;5081184;28;20587;-46
2021/08/08 04:29:19;;;;;;;3.73;2.10;;;13.20;99.90;;;;;;5099654;28;20433;-46
2021/08/08 04:31:45;;;;;;;2.97;1.60;;;13.30;99.90;;;;;;5081426;28;20410;-46
2021/08/08 04:34:10;;;;;;;3.57;1.80;;;13.30;99.90;;;;;;5099065;28;20267;-46
2021/08/08 04:36:36;;;;;;;3.60;2.00;;;13.30;99.90;;;;;;5098754;28;20470;-46
2021/08/08 04:39:02;;;;;;;2.40;1.37;;;13.30;99.90;;;;;;5099759;28;20403;-46
2021/08/08 04:41:27;;;;;;;2.70;1.37;;;13.30;99.90;;;;;;5101531;28;20227;-46
2021/08/08 04:43:53;;;;;;;4.37;1.80;;;13.30;99.90;;;;;;5120230;28;20203;-47
2021/08/08 04:46:19;;;;;;;4.83;2.47;;;13.30;99.90;;;;;;5101472;28;20172;-46
2021/08/08 04:48:45;;;;;;;2.10;1.80;;;13.40;99.90;;;;;;5105554;28;20421;-46
2021/08/08 04:51:11;;;;;;;2.90;1.97;;;13.40;99.90;;;;;;5088018;28;20529;-46
2021/08/08 04:53:37;;;;;;;3.80;1.90;;;13.50;99.90;;;;;;5099494;28;20176;-46
2021/08/08 04:56:03;;;;;;;2.33;1.73;;;13.50;99.90;;;;;;5098707;28;20791;-46
2021/08/08 04:58:29;;;;;;;5.00;1.73;;;13.60;99.90;;;;;;5091941;28;20883;-46
2021/08/08 05:00:55;;;;;;;4.83;1.70;;;13.60;99.90;;;;;;5084898;28;20446;-46
2021/08/08 05:03:21;;;;;;;3.23;1.67;;;13.70;99.90;;;;;;5107145;28;20187;-46
2021/08/08 05:05:47;;;;;;;2.90;1.40;;;13.70;99.90;;;;;;5107018;28;20540;-46
2021/08/08 05:08:14;;;;;;;1.70;1.47;;;13.70;99.90;;;;;;5088530;28;20501;-46
2021/08/08 05:10:41;;;;;;;3.23;1.80;;;13.80;99.90;;;;;;5084781;28;20180;-46
2021/08/08 05:13:07;;;;;;;2.40;1.40;;;13.80;99.90;;;;;;5100835;28;20429;-46
2021/08/08 05:15:33;;;;;;;3.33;1.57;;;13.90;99.90;;;;;;5093056;28;20495;-46
2021/08/08 05:17:59;;;;;;;3.93;1.40;;;13.90;99.90;;;;;;5114612;28;20900;-48
2021/08/08 05:20:25;;;;;;;1.90;1.30;;;14.00;99.90;;;;;;5114033;28;20430;-46
2021/08/08 05:22:51;;;;;;;2.60;1.33;;;14.00;99.90;;;;;;5107987;28;20208;-46
2021/08/08 05:25:16;;;;;;;3.37;1.80;;;14.10;99.90;;;;;;5111706;28;20827;-46
2021/08/08 05:27:42;;;;;;;2.50;1.40;;;14.10;99.90;;;;;;5098607;28;20426;-46
2021/08/08 05:30:10;;;;;;;4.07;2.70;;;14.20;99.90;;;;;;5104938;28;20470;-46
2021/08/08 05:32:36;;;;;;;1.60;1.33;;;14.20;99.90;;;;;;5109428;28;20429;-46
2021/08/08 05:35:03;;;;;;;2.70;1.20;;;14.30;99.90;;;;;;5086435;28;20442;-46
2021/08/08 05:37:29;;;;;;;4.03;2.10;;;14.40;99.90;;;;;;5103546;28;20437;-46
2021/08/08 05:39:54;;;;;;;1.87;1.10;;;14.50;99.90;;;;;;5109128;28;20870;-46
2021/08/08 05:42:21;;;;;;;3.30;1.50;;;14.50;99.90;;;;;;5082222;28;20204;-46
2021/08/08 05:44:47;;;;;;;2.50;1.53;;;14.60;99.90;;;;;;5100378;28;20638;-46
2021/08/08 05:47:13;;;;;;;2.40;1.40;;;14.60;99.90;;;;;;5101448;28;20847;-46
2021/08/08 05:49:39;;;;;;;4.00;1.50;;;14.70;99.90;;;;;;5106291;28;20445;-46
2021/08/08 05:52:08;;;;;;;2.23;1.40;;;14.70;99.90;;;;;;5106503;28;20437;-46
2021/08/08 05:54:34;;;;;;;2.97;1.30;;;14.80;99.90;;;;;;5088205;28;20453;-46
2021/08/08 05:57:00;;;;;;;2.33;1.23;;;14.80;99.90;;;;;;5102563;28;20425;-46
2021/08/08 05:59:26;;;;;;;2.00;1.20;;;14.90;99.90;;;;;;5102086;28;20462;-46
2021/08/08 06:01:52;;;;;;;3.13;1.40;;;15.00;99.90;;;;;;5095743;28;20206;-46
2021/08/08 06:04:18;;;;;;;4.70;1.23;;;15.00;99.90;;;;;;5109360;28;20426;-46
2021/08/08 06:06:44;;;;;;;3.10;1.50;;;15.10;99.90;;;;;;5086769;28;20426;-46
2021/08/08 06:09:09;;;;;;;3.20;1.00;;;15.20;99.90;;;;;;5088793;28;20443;-46
2021/08/08 06:11:37;;;;;;;2.97;1.37;;;15.30;99.90;;;;;;5109970;28;20277;-52
2021/08/08 06:14:03;;;;;;;2.07;1.17;;;15.50;99.90;;;;;;5106984;28;20255;-46
2021/08/08 06:16:29;;;;;;;1.53;1.00;;;15.50;99.90;;;;;;5106928;28;20448;-47
2021/08/08 06:18:55;;;;;;;1.70;1.33;;;15.60;99.90;;;;;;5100691;28;20820;-46
2021/08/08 06:21:21;;;;;;;1.47;1.17;;;15.80;99.90;;;;;;5103718;28;20290;-47
2021/08/08 06:23:46;;;;;;;1.80;1.20;;;15.90;99.90;;;;;;5104818;28;20232;-47
2021/08/08 06:26:13;;;;;;;2.60;1.13;;;15.80;99.90;;;;;;5104010;28;20871;-46
2021/08/08 06:28:39;;;;;;;1.50;1.10;;;16.00;99.90;;;;;;5075745;28;20635;-46
2021/08/08 06:31:05;;;;;;;1.40;1.10;;;16.30;99.90;;;;;;5102309;28;20533;-47
2021/08/08 06:33:33;;;;;;;2.23;1.10;;;16.40;99.90;;;;;;5103325;28;20546;-46
2021/08/08 06:35:58;;;;;;;3.00;1.20;;;16.60;99.90;;;;;;5110954;28;20591;-46
2021/08/08 06:38:24;;;;;;;3.17;1.57;;;16.70;99.90;;;;;;5109605;28;20463;-46
2021/08/08 06:40:50;;;;;;;1.87;1.50;;;16.50;99.90;;;;;;5109754;28;20193;-46
2021/08/08 06:43:16;;;;;;;2.20;1.33;;;16.50;99.90;;;;;;5112949;28;20800;-46
2021/08/08 06:45:42;;;;;;;3.20;1.77;;;16.80;99.90;;;;;;5112371;28;20441;-46
2021/08/08 06:48:07;;;;;;;5.77;1.50;;;17.00;99.90;;;;;;5116538;28;20207;-46
2021/08/08 06:50:33;;;;;;;6.13;1.50;;;17.20;99.90;;;;;;5118837;28;20472;-46
2021/08/08 06:52:59;;;;;;;1.70;1.00;;;17.30;99.90;;;;;;5122054;28;20179;-46
2021/08/08 06:55:25;;;;;;;2.30;1.20;;;17.50;99.90;;;;;;5121592;28;20706;-46
2021/08/08 06:57:51;;;;;;;4.60;1.20;;;17.50;99.90;;;;;;5099195;28;20184;-46
2021/08/08 07:00:17;;;;;;;3.80;1.07;;;17.40;99.90;;;;;;5092082;28;20732;-46
2021/08/08 07:02:43;;;;;;;2.63;1.93;;;17.30;99.90;;;;;;5103428;28;20212;-46
2021/08/08 07:05:09;;;;;;;3.77;1.60;;;17.00;99.90;;;;;;5100798;28;20427;-46
2021/08/08 07:07:35;;;;;;;2.43;1.17;;;17.00;99.90;;;;;;5116122;28;20168;-46
2021/08/08 07:10:02;;;;;;;2.53;1.10;;;17.20;99.90;;;;;;5113867;28;20505;-46
2021/08/08 07:12:27;;;;;;;1.57;1.23;;;17.30;99.90;;;;;;5098534;28;20530;-46
2021/08/08 07:14:53;;;;;;;2.60;1.30;;;17.50;99.90;;;;;;5064887;28;20517;-46
2021/08/08 07:17:19;;;;;;;2.77;1.67;;;17.80;99.90;;;;;;5099653;28;20255;-45
2021/08/08 07:19:45;;;;;;;5.93;1.70;;;17.90;99.70;;;;;;5112691;28;20658;-46
2021/08/08 07:22:10;;;;;;;3.60;1.43;;;18.30;98.70;;;;;;5101590;28;20207;-46
2021/08/08 07:24:36;;;;;;;5.90;1.40;;;18.20;98.20;;;;;;5119589;28;20465;-46
2021/08/08 07:27:02;;;;;;;5.93;1.57;;;18.50;98.40;;;;;;5107230;28;20486;-46
2021/08/08 07:29:28;;;;;;;3.73;1.27;;;18.50;97.70;;;;;;5107053;28;20188;-46
2021/08/08 07:31:54;;;;;;;4.70;1.60;;;18.20;97.30;;;;;;5106154;28;20422;-46
2021/08/08 07:34:20;;;;;;;2.67;1.50;;;18.40;97.10;;;;;;5103598;28;20438;-46
2021/08/08 07:36:46;;;;;;;1.70;1.27;;;18.70;96.80;;;;;;5114478;28;20425;-46
2021/08/08 07:39:12;;;;;;;2.37;1.33;;;19.10;96.30;;;;;;5119265;28;20436;-46
2021/08/08 07:41:38;;;;;;;4.37;1.80;;;18.80;96.60;;;;;;5119553;28;20465;-46
2021/08/08 07:44:04;;;;;;;2.07;1.40;;;18.60;96.20;;;;;;5119673;28;21091;-46
2021/08/08 07:46:30;;;;;;;4.60;1.50;;;18.60;96.50;;;;;;5119865;28;20453;-46
2021/08/08 07:48:56;;;;;;;2.20;1.23;;;18.70;96.90;;;;;;5119914;28;20737;-46
2021/08/08 07:51:21;;;;;;;3.50;1.43;;;19.00;96.30;;;;;;5119210;28;20405;-46
2021/08/08 07:53:47;;;;;;;1.73;1.10;;;18.60;95.40;;;;;;5120590;28;20418;-46
2021/08/08 07:56:13;;;;;;;1.60;1.30;;;18.60;96.00;;;;;;5102674;28;20172;-46
2021/08/08 07:58:38;;;;;;;2.80;1.60;;;18.80;96.10;;;;;;5120002;28;20188;-46
2021/08/08 08:01:04;;;;;;;1.90;1.30;;;19.30;95.90;;;;;;5120186;28;20519;-46
2021/08/08 08:03:30;;;;;;;3.87;1.50;;;19.50;94.70;;;;;;5120879;28;20409;-46
2021/08/08 08:05:56;;;;;;;4.33;1.80;;;19.80;94.50;;;;;;5120395;28;20442;-46
2021/08/08 08:08:22;;;;;;;2.43;1.50;;;19.70;94.70;;;;;;5120009;28;20199;-46
2021/08/08 08:10:48;;;;;;;1.80;1.10;;;19.90;93.20;;;;;;5102338;28;20425;-46
2021/08/08 08:13:13;;;;;;;3.90;1.80;;;20.00;93.20;;;;;;5118593;28;20436;-46
2021/08/08 08:15:39;;;;;;;2.00;1.00;;;19.80;93.60;;;;;;5107026;28;20195;-46
2021/08/08 08:18:05;;;;;;;2.60;1.17;;;20.10;94.20;;;;;;5087924;28;20184;-46
2021/08/08 08:20:31;;;;;;;2.70;1.60;;;20.60;93.00;;;;;;5108591;28;20549;-46
2021/08/08 08:22:56;;;;;;;7.93;1.37;;;21.20;92.30;;;;;;5104335;28;20565;-46
2021/08/08 08:25:22;;;;;;;1.90;1.30;;;21.00;91.60;;;;;;5115650;28;20258;-46
2021/08/08 08:27:49;;;;;;;2.57;1.30;;;21.00;90.80;;;;;;5111749;28;20183;-46
2021/08/08 08:30:16;;;;;;;1.90;1.63;;;20.40;91.20;;;;;;5088390;28;20450;-46
2021/08/08 08:32:42;;;;;;;2.07;1.33;;;20.40;90.30;;;;;;5083428;28;20705;-46
2021/08/08 08:35:09;;;;;;;2.60;1.43;;;19.70;90.90;;;;;;5106592;28;20438;-47
2021/08/08 08:37:38;;;;;;;1.93;1.47;;;19.30;92.50;;;;;;5102133;28;20426;-46
2021/08/08 08:40:05;;;;;;;2.00;1.53;;;18.60;92.90;;;;;;5092903;28;20879;-39
2021/08/08 08:42:34;;;;;;;3.20;1.47;;;18.50;93.30;;;;;;5115249;28;20466;-37
2021/08/08 08:45:01;;;;;;;2.93;1.40;;;18.20;94.20;;;;;;5110977;28;20479;-38
2021/08/08 08:47:28;;;;;;;2.20;1.50;;;18.10;94.90;;;;;;5106416;28;20442;-36
2021/08/08 08:49:58;;;;;;;3.00;1.30;;;18.30;94.90;;;;;;5087423;28;20436;-37
2021/08/08 08:52:27;;;;;;;1.80;1.40;;;18.60;95.00;;;;;;5097459;28;20928;-36
2021/08/08 08:54:57;;;;;;;3.13;1.47;;;18.90;94.10;;;;;;5098448;28;20442;-38
2021/08/08 08:57:23;;;;;;;1.93;1.40;;;19.20;94.10;;;;;;5097692;28;20422;-36
2021/08/08 08:59:51;;;;;;;2.40;1.23;;;19.20;93.80;;;;;;5079773;28;20495;-46
2021/08/08 09:02:17;;;;;;;3.20;1.60;;;19.30;93.90;;;;;;5084391;28;20748;-46
2021/08/08 09:04:44;;;;;;;1.80;1.43;;;19.30;93.40;;;;;;5116554;28;20429;-45
2021/08/08 09:07:10;;;;;;;3.13;1.70;;;19.30;93.30;;;;;;5116844;28;20402;-46
2021/08/08 09:09:37;;;;;;;2.40;1.60;;;19.90;91.50;;;;;;5098083;28;20668;-46
2021/08/08 09:12:04;;;;;;;2.90;1.33;;;20.60;90.90;;;;;;5106537;28;20232;-46
2021/08/08 09:14:32;;;;;;;2.27;1.53;;;21.40;89.90;;;;;;5105639;28;20454;-45
2021/08/08 09:16:58;;;;;;;2.80;1.40;;;22.10;86.90;;;;;;5106268;28;20422;-46
2021/08/08 09:19:27;;;;;;;1.63;1.17;;;22.10;83.80;;;;;;5108890;28;20449;-45
2021/08/08 09:21:53;;;;;;;2.33;1.33;;;22.20;84.10;;;;;;5108321;28;20469;-46
2021/08/08 09:24:33;;;;;;;2.67;1.33;;;22.70;82.30;;;;;;5109287;28;20501;-45
2021/08/08 09:27:06;;;;;;;2.20;1.40;;;22.80;82.00;;;;;;5087682;28;20446;-45
2021/08/08 09:29:36;;;;;;;2.73;1.40;;;22.70;80.80;;;;;;5099641;28;20507;-45
2021/08/08 09:32:03;;;;;;;2.80;1.50;;;23.20;80.20;;;;;;5098342;28;20418;-46
2021/08/08 09:34:33;;;;;;;2.10;1.20;;;23.70;78.70;;;;;;5103167;28;20453;-46
2021/08/08 09:37:22;;;;;;;3.30;1.30;;;23.90;76.90;;;;;;5105727;28;20855;-46
2021/08/08 09:39:53;;;;;;;1.87;1.33;;;24.30;75.00;;;;;;5114939;28;20472;-45
2021/08/08 09:42:26;;;;;;;3.77;1.60;;;23.90;73.00;;;;;;5098871;28;20792;-46
2021/08/08 09:45:01;;;;;;;4.13;1.87;;;23.70;72.60;;;;;;5116707;28;20413;-45
2021/08/08 09:47:47;;;;;;;5.17;2.57;;;23.80;73.70;;;;;;5115917;28;20405;-46
2021/08/08 09:50:15;;;;;;;3.70;1.37;;;23.60;73.20;;;;;;5094752;28;20533;-45
2021/08/08 09:52:48;;;;;;;1.90;1.40;;;23.80;72.60;;;;;;5108923;28;20417;-45
2021/08/08 09:55:39;;;;;;;3.87;1.63;;;24.30;71.70;;;;;;5112151;28;20856;-46
2021/08/08 09:58:17;;;;;;;3.33;1.40;;;24.40;70.40;;;;;;5112948;28;20426;-46
2021/08/08 10:00:43;;;;;;;1.80;1.40;;;25.40;67.70;;;;;;5111332;28;20548;-46
2021/08/08 10:03:14;;;;;;;3.63;1.60;;;24.90;65.90;;;;;;5110436;28;20526;-46
2021/08/08 10:05:42;;;;;;;2.50;1.50;;;24.30;65.50;;;;;;5107527;28;20448;-46
2021/08/08 10:08:16;;;;;;;2.33;1.50;;;23.60;68.00;;;;;;5093223;28;20433;-46
2021/08/08 10:10:44;;;;;;;2.93;1.40;;;23.50;70.30;;;;;;5104639;28;20437;-46
2021/08/08 10:13:35;;;;;;;2.77;1.80;;;24.00;70.30;;;;;;5102149;28;20882;-46
2021/08/08 10:16:09;;;;;;;2.10;1.40;;;25.20;66.20;;;;;;5109517;28;20457;-46
2021/08/08 10:18:44;;;;;;;2.03;1.80;;;25.70;62.00;;;;;;5092129;28;20843;-46
2021/08/08 10:21:10;;;;;;;6.17;1.83;;;27.10;62.50;;;;;;5098369;28;20461;-46
2021/08/08 10:23:38;;;;;;;2.00;1.50;;;27.00;59.70;;;;;;5098855;28;20764;-46
2021/08/08 10:26:04;;;;;;;2.07;1.50;;;27.20;58.30;;;;;;5099493;28;20430;-46
2021/08/08 10:28:30;;;;;;;5.23;1.70;;;26.00;59.60;;;;;;5100304;28;20452;-46
2021/08/08 10:31:01;;;;;;;3.37;1.63;;;24.00;61.60;;;;;;5105713;28;20452;-46
2021/08/08 10:33:27;;;;;;;3.20;1.50;;;23.20;64.90;;;;;;5107723;28;20422;-46
2021/08/08 10:35:52;;;;;;;2.30;1.67;;;23.70;66.20;;;;;;5112012;28;20433;-46
2021/08/08 10:38:19;;;;;;;4.57;1.50;;;23.70;66.60;;;;;;5114317;28;20180;-46
2021/08/08 10:40:46;;;;;;;2.23;1.10;;;22.40;66.40;;;;;;5111165;28;20191;-46
2021/08/08 10:43:27;;;;;;;2.33;1.47;;;23.00;67.30;;;;;;5110084;28;20469;-45
2021/08/08 10:46:07;;;;;;;2.03;1.50;;;23.30;65.60;;;;;;5101181;28;20469;-45
2021/08/08 10:48:38;;;;;;;3.70;1.27;;;23.80;65.00;;;;;;5100078;28;20417;-46
2021/08/08 10:51:21;;;;;;;6.03;2.07;;;23.70;65.50;;;;;;5105212;28;20453;-46
2021/08/08 10:54:02;;;;;;;2.73;1.23;;;23.80;64.80;;;;;;5107677;28;20414;-46
2021/08/08 10:56:40;;;;;;;2.47;2.10;;;24.20;65.10;;;;;;5107691;28;20425;-46
2021/08/08 10:59:24;;;;;;;3.70;1.53;;;25.50;63.90;;;;;;5107247;28;20453;-46
2021/08/08 11:02:09;;;;;;;3.23;1.43;;;26.80;57.60;;;;;;5103018;28;20489;-47
2021/08/08 11:04:36;;;;;;;2.77;1.70;;;28.70;54.40;;;;;;5104797;28;20540;-46
2021/08/08 11:07:04;;;;;;;2.50;1.27;;;28.70;53.90;;;;;;5105309;28;20858;-47
2021/08/08 11:09:31;;;;;;;3.43;1.30;;;30.10;52.10;;;;;;5104626;28;20524;-47
2021/08/08 11:11:58;;;;;;;2.33;1.73;;;29.30;50.80;;;;;;5093333;28;20400;-47
2021/08/08 11:14:26;;;;;;;2.03;1.63;;;28.20;52.40;;;;;;5104451;28;20418;-47
2021/08/08 11:17:06;;;;;;;2.03;1.73;;;28.10;52.90;;;;;;5108428;28;20407;-47
2021/08/08 11:19:35;;;;;;;3.73;1.73;;;27.90;52.20;;;;;;5111541;28;20882;-46
2021/08/08 11:22:13;;;;;;;1.77;1.17;;;27.50;52.10;;;;;;5094966;28;20469;-46
2021/08/08 11:24:41;;;;;;;1.80;1.40;;;26.80;53.00;;;;;;5098886;28;20473;-47
2021/08/08 11:27:07;;;;;;;2.20;1.50;;;26.10;52.80;;;;;;5109671;28;20435;-46
2021/08/08 11:29:34;;;;;;;1.60;1.40;;;27.10;52.80;;;;;;5112636;28;20514;-47
2021/08/08 11:32:01;;;;;;;2.10;1.30;;;28.80;53.20;;;;;;5116465;28;20417;-47
2021/08/08 11:34:27;;;;;;;2.53;1.30;;;28.60;50.20;;;;;;5118295;28;20521;-46
2021/08/08 11:36:56;;;;;;;3.00;1.20;;;28.20;48.80;;;;;;5119114;28;20433;-47
2021/08/08 11:39:25;;;;;;;2.63;1.60;;;27.60;48.30;;;;;;5108004;28;20449;-47
2021/08/08 11:41:52;;;;;;;3.43;1.33;;;26.80;50.30;;;;;;5090717;28;20538;-48
2021/08/08 11:44:18;;;;;;;2.20;1.80;;;26.50;50.40;;;;;;5093536;28;20412;-47
2021/08/08 11:46:56;;;;;;;3.40;1.30;;;25.80;50.90;;;;;;5105933;28;20410;-47
2021/08/08 11:49:25;;;;;;;2.53;1.40;;;24.90;50.50;;;;;;5097406;28;20696;-47
2021/08/08 11:52:20;;;;;;;2.23;1.40;;;24.90;51.70;;;;;;5098368;28;20409;-46
2021/08/08 11:54:48;;;;;;;2.60;2.40;;;25.00;52.40;;;;;;5098855;28;20744;-47
2021/08/08 11:57:33;;;;;;;1.53;1.00;;;25.40;53.40;;;;;;5098387;28;20389;-46
2021/08/08 11:59:59;;;;;;;2.73;1.40;;;24.70;51.20;;;;;;5098000;28;20451;-46
2021/08/08 12:02:25;;;;;;;2.30;1.13;;;23.20;54.00;;;;;;5099066;28;20466;-46
2021/08/08 12:04:53;;;;;;;2.17;1.30;;;23.20;55.70;;;;;;5099088;28;20418;-46
2021/08/08 12:07:21;;;;;;;2.07;0.80;;;23.50;54.40;;;;;;5087041;28;20437;-46
2021/08/08 12:09:48;;;;;;;1.60;1.00;;;24.80;53.20;;;;;;5104083;28;20434;-46
2021/08/08 12:12:14;;;;;;;1.50;1.10;;;24.90;51.00;;;;;;5094038;28;20430;-46
2021/08/08 12:14:42;;;;;;;1.93;1.30;;;25.70;50.60;;;;;;5105883;28;20441;-46
2021/08/08 12:17:18;;;;;;;2.63;1.80;;;26.40;49.90;;;;;;5107684;28;20430;-46
2021/08/08 12:19:48;;;;;;;1.77;1.20;;;26.10;50.80;;;;;;5106684;28;20464;-47
2021/08/08 12:22:16;;;;;;;3.27;1.30;;;26.70;49.90;;;;;;5104214;28;20457;-46
2021/08/08 12:24:45;;;;;;;1.87;1.17;;;27.90;49.10;;;;;;5103854;28;20519;-47
2021/08/08 12:27:15;;;;;;;1.77;1.00;;;28.80;47.90;;;;;;5086045;28;20388;-46
2021/08/08 12:29:41;;;;;;;1.80;1.37;;;29.50;47.50;;;;;;5101327;28;20716;-46
2021/08/08 12:32:19;;;;;;;2.10;1.30;;;30.70;46.30;;;;;;5109682;28;20393;-47
2021/08/08 12:34:45;;;;;;;4.63;1.50;;;30.50;44.90;;;;;;5098933;28;20400;-46
2021/08/08 12:37:15;;;;;;;2.10;1.27;;;30.80;45.00;;;;;;5107727;28;20423;-47
2021/08/08 12:39:43;;;;;;;1.90;1.33;;;32.30;43.60;;;;;;5118687;28;20393;-47
2021/08/08 12:42:35;;;;;;;3.07;1.40;;;33.00;41.90;;;;;;5115325;28;20741;-47
2021/08/08 12:45:03;;;;;;;1.90;1.23;;;32.70;41.90;;;;;;5096604;28;20457;-47
2021/08/08 12:47:32;;;;;;;2.20;1.43;;;33.20;41.80;;;;;;5089028;28;20418;-46
2021/08/08 12:49:58;;;;;;;1.47;1.20;;;31.30;41.90;;;;;;5106265;28;20724;-47